sensor_id;sensor_type;location;lat;lon;timestamp;P1;durP1;ratioP1;P2;durP2;ratioP2
20078;SDS011;10199;48.850;8.924;2023-12-07T00:02:06;5.93;;;5.33;;
20078;SDS011;10199;48.850;8.924;2023-12-07T00:04:54;6.57;;;4.97;;
20078;SDS011;10199;48.850;8.924;2023-12-07T00:07:42;7.10;;;5.20;;
20078;SDS011;10199;48.850;8.924;2023-12-07T00:10:31;8.80;;;5.60;;
20078;SDS011;10199;48.850;8.924;2023-12-07T00:13:20;7.43;;;5.60;;
20078;SDS011;10199;48.850;8.924;2023-12-07T00:16:08;8.00;;;5.87;;
20078;SDS011;10199;48.850;8.924;2023-12-07T00:18:56;7.10;;;5.23;;
20078;SDS011;10199;48.850;8.924;2023-12-07T00:21:44;6.47;;;5.40;;
20078;SDS011;10199;48.850;8.924;2023-12-07T00:24:32;6.43;;;5.47;;
20078;SDS011;10199;48.850;8.924;2023-12-07T00:27:20;5.80;;;5.00;;
20078;SDS011;10199;48.850;8.924;2023-12-07T00:30:11;7.13;;;5.30;;
20078;SDS011;10199;48.850;8.924;2023-12-07T00:32:59;6.43;;;5.67;;
20078;SDS011;10199;48.850;8.924;2023-12-07T00:35:47;7.63;;;5.20;;
20078;SDS011;10199;48.850;8.924;2023-12-07T00:38:36;7.63;;;5.20;;
20078;SDS011;10199;48.850;8.924;2023-12-07T00:41:24;6.30;;;5.20;;
20078;SDS011;10199;48.850;8.924;2023-12-07T00:44:13;9.00;;;5.60;;
20078;SDS011;10199;48.850;8.924;2023-12-07T00:47:02;5.97;;;5.20;;
20078;SDS011;10199;48.850;8.924;2023-12-07T00:49:51;6.90;;;5.50;;
20078;SDS011;10199;48.850;8.924;2023-12-07T00:52:39;7.53;;;5.60;;
20078;SDS011;10199;48.850;8.924;2023-12-07T00:55:27;6.93;;;5.40;;
20078;SDS011;10199;48.850;8.924;2023-12-07T00:58:15;9.57;;;6.10;;
20078;SDS011;10199;48.850;8.924;2023-12-07T01:01:03;7.77;;;5.93;;
20078;SDS011;10199;48.850;8.924;2023-12-07T01:03:53;6.07;;;5.27;;
20078;SDS011;10199;48.850;8.924;2023-12-07T01:06:41;6.37;;;5.70;;
20078;SDS011;10199;48.850;8.924;2023-12-07T01:09:30;7.30;;;5.60;;
20078;SDS011;10199;48.850;8.924;2023-12-07T01:12:18;7.63;;;5.60;;
20078;SDS011;10199;48.850;8.924;2023-12-07T01:15:07;6.30;;;5.37;;
20078;SDS011;10199;48.850;8.924;2023-12-07T01:17:55;6.17;;;5.57;;
20078;SDS011;10199;48.850;8.924;2023-12-07T01:20:45;6.77;;;5.60;;
20078;SDS011;10199;48.850;8.924;2023-12-07T01:23:34;7.00;;;6.07;;
20078;SDS011;10199;48.850;8.924;2023-12-07T01:26:22;10.70;;;6.03;;
20078;SDS011;10199;48.850;8.924;2023-12-07T01:29:10;8.50;;;5.93;;
20078;SDS011;10199;48.850;8.924;2023-12-07T01:32:00;6.93;;;5.67;;
20078;SDS011;10199;48.850;8.924;2023-12-07T01:34:48;7.70;;;6.20;;
20078;SDS011;10199;48.850;8.924;2023-12-07T01:37:38;10.07;;;6.20;;
20078;SDS011;10199;48.850;8.924;2023-12-07T01:40:26;9.33;;;6.67;;
20078;SDS011;10199;48.850;8.924;2023-12-07T01:43:14;9.23;;;6.60;;
20078;SDS011;10199;48.850;8.924;2023-12-07T01:46:02;7.87;;;6.90;;
20078;SDS011;10199;48.850;8.924;2023-12-07T01:48:52;7.43;;;6.23;;
20078;SDS011;10199;48.850;8.924;2023-12-07T01:51:40;7.27;;;6.57;;
20078;SDS011;10199;48.850;8.924;2023-12-07T01:54:29;10.27;;;6.40;;
20078;SDS011;10199;48.850;8.924;2023-12-07T01:57:18;7.87;;;5.87;;
20078;SDS011;10199;48.850;8.924;2023-12-07T02:00:07;8.33;;;6.20;;
20078;SDS011;10199;48.850;8.924;2023-12-07T02:02:56;7.20;;;6.30;;
20078;SDS011;10199;48.850;8.924;2023-12-07T02:05:46;8.20;;;6.40;;
20078;SDS011;10199;48.850;8.924;2023-12-07T02:08:36;7.00;;;5.77;;
20078;SDS011;10199;48.850;8.924;2023-12-07T02:11:29;9.77;;;6.50;;
20078;SDS011;10199;48.850;8.924;2023-12-07T02:14:17;9.70;;;6.80;;
20078;SDS011;10199;48.850;8.924;2023-12-07T02:17:09;9.33;;;7.17;;
20078;SDS011;10199;48.850;8.924;2023-12-07T02:20:05;9.20;;;6.93;;
20078;SDS011;10199;48.850;8.924;2023-12-07T02:23:00;11.07;;;8.37;;
20078;SDS011;10199;48.850;8.924;2023-12-07T02:25:51;11.00;;;8.57;;
20078;SDS011;10199;48.850;8.924;2023-12-07T02:28:42;11.03;;;6.90;;
20078;SDS011;10199;48.850;8.924;2023-12-07T02:31:30;8.57;;;7.13;;
20078;SDS011;10199;48.850;8.924;2023-12-07T02:34:18;8.03;;;6.33;;
20078;SDS011;10199;48.850;8.924;2023-12-07T02:37:07;8.50;;;6.27;;
20078;SDS011;10199;48.850;8.924;2023-12-07T02:39:56;7.40;;;5.80;;
20078;SDS011;10199;48.850;8.924;2023-12-07T02:42:45;8.40;;;6.97;;
20078;SDS011;10199;48.850;8.924;2023-12-07T02:45:35;9.33;;;6.87;;
20078;SDS011;10199;48.850;8.924;2023-12-07T02:48:24;8.37;;;6.60;;
20078;SDS011;10199;48.850;8.924;2023-12-07T02:51:13;8.17;;;6.20;;
20078;SDS011;10199;48.850;8.924;2023-12-07T02:54:01;7.27;;;6.57;;
20078;SDS011;10199;48.850;8.924;2023-12-07T02:56:49;8.57;;;6.63;;
20078;SDS011;10199;48.850;8.924;2023-12-07T02:59:37;9.03;;;6.97;;
20078;SDS011;10199;48.850;8.924;2023-12-07T03:02:27;7.73;;;6.63;;
20078;SDS011;10199;48.850;8.924;2023-12-07T03:05:15;7.17;;;6.30;;
20078;SDS011;10199;48.850;8.924;2023-12-07T03:08:06;8.40;;;6.70;;
20078;SDS011;10199;48.850;8.924;2023-12-07T03:10:54;10.10;;;6.83;;
20078;SDS011;10199;48.850;8.924;2023-12-07T03:13:42;7.90;;;6.90;;
20078;SDS011;10199;48.850;8.924;2023-12-07T03:16:30;8.23;;;6.70;;
20078;SDS011;10199;48.850;8.924;2023-12-07T03:19:20;8.63;;;6.47;;
20078;SDS011;10199;48.850;8.924;2023-12-07T03:22:08;9.77;;;6.30;;
20078;SDS011;10199;48.850;8.924;2023-12-07T03:24:56;8.63;;;6.23;;
20078;SDS011;10199;48.850;8.924;2023-12-07T03:27:44;8.30;;;6.53;;
20078;SDS011;10199;48.850;8.924;2023-12-07T03:30:33;10.80;;;5.93;;
20078;SDS011;10199;48.850;8.924;2023-12-07T03:33:21;10.17;;;7.27;;
20078;SDS011;10199;48.850;8.924;2023-12-07T03:36:11;7.37;;;6.00;;
20078;SDS011;10199;48.850;8.924;2023-12-07T03:39:00;7.80;;;6.33;;
20078;SDS011;10199;48.850;8.924;2023-12-07T03:41:49;8.00;;;6.17;;
20078;SDS011;10199;48.850;8.924;2023-12-07T03:44:37;7.23;;;6.53;;
20078;SDS011;10199;48.850;8.924;2023-12-07T03:47:26;7.37;;;6.20;;
20078;SDS011;10199;48.850;8.924;2023-12-07T03:50:14;10.60;;;6.90;;
20078;SDS011;10199;48.850;8.924;2023-12-07T03:53:04;8.97;;;6.63;;
20078;SDS011;10199;48.850;8.924;2023-12-07T03:55:52;9.23;;;6.20;;
20078;SDS011;10199;48.850;8.924;2023-12-07T03:58:40;8.33;;;6.20;;
20078;SDS011;10199;48.850;8.924;2023-12-07T04:01:28;9.90;;;6.57;;
20078;SDS011;10199;48.850;8.924;2023-12-07T04:04:17;8.17;;;6.60;;
20078;SDS011;10199;48.850;8.924;2023-12-07T04:07:05;8.20;;;6.50;;
20078;SDS011;10199;48.850;8.924;2023-12-07T04:09:55;8.87;;;6.10;;
20078;SDS011;10199;48.850;8.924;2023-12-07T04:12:44;10.77;;;6.60;;
20078;SDS011;10199;48.850;8.924;2023-12-07T04:15:32;10.37;;;7.20;;
20078;SDS011;10199;48.850;8.924;2023-12-07T04:18:20;9.83;;;6.87;;
20078;SDS011;10199;48.850;8.924;2023-12-07T04:21:08;9.43;;;7.40;;
20078;SDS011;10199;48.850;8.924;2023-12-07T04:23:56;9.10;;;7.00;;
20078;SDS011;10199;48.850;8.924;2023-12-07T04:26:46;8.30;;;6.87;;
20078;SDS011;10199;48.850;8.924;2023-12-07T04:29:35;11.47;;;7.07;;
20078;SDS011;10199;48.850;8.924;2023-12-07T04:32:23;9.10;;;7.00;;
20078;SDS011;10199;48.850;8.924;2023-12-07T04:35:12;7.70;;;6.43;;
20078;SDS011;10199;48.850;8.924;2023-12-07T04:38:00;7.67;;;6.00;;
20078;SDS011;10199;48.850;8.924;2023-12-07T04:40:49;9.07;;;6.47;;
20078;SDS011;10199;48.850;8.924;2023-12-07T04:43:38;8.80;;;6.23;;
20078;SDS011;10199;48.850;8.924;2023-12-07T04:46:27;9.03;;;6.50;;
20078;SDS011;10199;48.850;8.924;2023-12-07T04:49:15;9.23;;;7.03;;
20078;SDS011;10199;48.850;8.924;2023-12-07T04:52:03;8.60;;;7.07;;
20078;SDS011;10199;48.850;8.924;2023-12-07T04:54:52;8.67;;;7.03;;
20078;SDS011;10199;48.850;8.924;2023-12-07T04:57:40;8.97;;;7.03;;
20078;SDS011;10199;48.850;8.924;2023-12-07T05:00:29;9.67;;;7.03;;
20078;SDS011;10199;48.850;8.924;2023-12-07T05:03:17;10.20;;;7.13;;
20078;SDS011;10199;48.850;8.924;2023-12-07T05:06:06;9.80;;;6.80;;
20078;SDS011;10199;48.850;8.924;2023-12-07T05:08:55;10.93;;;6.73;;
20078;SDS011;10199;48.850;8.924;2023-12-07T05:11:43;9.70;;;7.03;;
20078;SDS011;10199;48.850;8.924;2023-12-07T05:14:32;9.47;;;6.87;;
20078;SDS011;10199;48.850;8.924;2023-12-07T05:17:22;8.40;;;6.90;;
20078;SDS011;10199;48.850;8.924;2023-12-07T05:20:11;8.27;;;7.23;;
20078;SDS011;10199;48.850;8.924;2023-12-07T05:22:59;9.47;;;7.20;;
20078;SDS011;10199;48.850;8.924;2023-12-07T05:25:48;8.50;;;7.53;;
20078;SDS011;10199;48.850;8.924;2023-12-07T05:28:36;10.83;;;7.10;;
20078;SDS011;10199;48.850;8.924;2023-12-07T05:31:24;8.93;;;7.00;;
20078;SDS011;10199;48.850;8.924;2023-12-07T05:34:15;7.93;;;6.77;;
20078;SDS011;10199;48.850;8.924;2023-12-07T05:37:03;9.50;;;7.37;;
20078;SDS011;10199;48.850;8.924;2023-12-07T05:39:51;8.93;;;7.17;;
20078;SDS011;10199;48.850;8.924;2023-12-07T05:42:40;7.90;;;7.10;;
20078;SDS011;10199;48.850;8.924;2023-12-07T05:45:28;11.55;;;8.10;;
20078;SDS011;10199;48.850;8.924;2023-12-07T05:48:16;10.37;;;7.30;;
20078;SDS011;10199;48.850;8.924;2023-12-07T05:51:11;9.00;;;7.00;;
20078;SDS011;10199;48.850;8.924;2023-12-07T05:54:00;9.40;;;6.73;;
20078;SDS011;10199;48.850;8.924;2023-12-07T05:56:48;8.70;;;7.43;;
20078;SDS011;10199;48.850;8.924;2023-12-07T05:59:36;10.93;;;7.70;;
20078;SDS011;10199;48.850;8.924;2023-12-07T06:02:25;12.17;;;9.30;;
20078;SDS011;10199;48.850;8.924;2023-12-07T06:05:13;8.93;;;7.63;;
20078;SDS011;10199;48.850;8.924;2023-12-07T06:08:03;8.63;;;6.90;;
20078;SDS011;10199;48.850;8.924;2023-12-07T06:10:52;10.00;;;6.77;;
20078;SDS011;10199;48.850;8.924;2023-12-07T06:13:40;10.80;;;7.20;;
20078;SDS011;10199;48.850;8.924;2023-12-07T06:16:29;7.60;;;6.60;;
20078;SDS011;10199;48.850;8.924;2023-12-07T06:19:17;9.47;;;6.63;;
20078;SDS011;10199;48.850;8.924;2023-12-07T06:22:05;10.83;;;6.93;;
20078;SDS011;10199;48.850;8.924;2023-12-07T06:24:55;8.47;;;6.93;;
20078;SDS011;10199;48.850;8.924;2023-12-07T06:27:43;8.70;;;7.30;;
20078;SDS011;10199;48.850;8.924;2023-12-07T06:30:31;10.20;;;7.00;;
20078;SDS011;10199;48.850;8.924;2023-12-07T06:33:19;10.97;;;7.53;;
20078;SDS011;10199;48.850;8.924;2023-12-07T06:36:08;9.10;;;7.43;;
20078;SDS011;10199;48.850;8.924;2023-12-07T06:38:57;9.10;;;8.00;;
20078;SDS011;10199;48.850;8.924;2023-12-07T06:41:46;8.67;;;7.23;;
20078;SDS011;10199;48.850;8.924;2023-12-07T06:44:35;11.67;;;7.63;;
20078;SDS011;10199;48.850;8.924;2023-12-07T06:47:23;9.67;;;7.63;;
20078;SDS011;10199;48.850;8.924;2023-12-07T06:50:11;10.07;;;7.77;;
20078;SDS011;10199;48.850;8.924;2023-12-07T06:52:59;10.73;;;7.43;;
20078;SDS011;10199;48.850;8.924;2023-12-07T06:55:48;9.30;;;7.77;;
20078;SDS011;10199;48.850;8.924;2023-12-07T06:58:37;8.77;;;6.73;;
20078;SDS011;10199;48.850;8.924;2023-12-07T07:01:25;8.80;;;6.77;;
20078;SDS011;10199;48.850;8.924;2023-12-07T07:04:13;9.53;;;7.10;;
20078;SDS011;10199;48.850;8.924;2023-12-07T07:07:02;9.20;;;7.17;;
20078;SDS011;10199;48.850;8.924;2023-12-07T07:09:51;8.20;;;7.17;;
20078;SDS011;10199;48.850;8.924;2023-12-07T07:12:39;8.70;;;7.00;;
20078;SDS011;10199;48.850;8.924;2023-12-07T07:15:29;9.07;;;7.00;;
20078;SDS011;10199;48.850;8.924;2023-12-07T07:18:17;9.80;;;7.70;;
20078;SDS011;10199;48.850;8.924;2023-12-07T07:21:05;10.83;;;7.57;;
20078;SDS011;10199;48.850;8.924;2023-12-07T07:23:53;9.80;;;7.17;;
20078;SDS011;10199;48.850;8.924;2023-12-07T07:26:43;7.97;;;6.80;;
20078;SDS011;10199;48.850;8.924;2023-12-07T07:29:31;7.97;;;6.67;;
20078;SDS011;10199;48.850;8.924;2023-12-07T07:32:21;6.77;;;6.07;;
20078;SDS011;10199;48.850;8.924;2023-12-07T07:35:10;6.80;;;6.10;;
20078;SDS011;10199;48.850;8.924;2023-12-07T07:37:58;7.93;;;7.00;;
20078;SDS011;10199;48.850;8.924;2023-12-07T07:40:46;9.73;;;8.77;;
20078;SDS011;10199;48.850;8.924;2023-12-07T07:43:35;7.43;;;6.10;;
20078;SDS011;10199;48.850;8.924;2023-12-07T07:46:24;6.13;;;5.27;;
20078;SDS011;10199;48.850;8.924;2023-12-07T07:49:14;11.27;;;8.27;;
20078;SDS011;10199;48.850;8.924;2023-12-07T07:52:02;30.17;;;18.53;;
20078;SDS011;10199;48.850;8.924;2023-12-07T07:54:51;13.13;;;10.03;;
20078;SDS011;10199;48.850;8.924;2023-12-07T07:57:39;11.90;;;8.27;;
20078;SDS011;10199;48.850;8.924;2023-12-07T08:00:27;37.30;;;19.27;;
20078;SDS011;10199;48.850;8.924;2023-12-07T08:03:16;52.27;;;24.10;;
20078;SDS011;10199;48.850;8.924;2023-12-07T08:06:06;61.83;;;29.10;;
20078;SDS011;10199;48.850;8.924;2023-12-07T08:08:55;18.57;;;10.87;;
20078;SDS011;10199;48.850;8.924;2023-12-07T08:11:43;61.90;;;32.87;;
20078;SDS011;10199;48.850;8.924;2023-12-07T08:14:31;59.03;;;33.07;;
20078;SDS011;10199;48.850;8.924;2023-12-07T08:17:19;11.23;;;8.10;;
20078;SDS011;10199;48.850;8.924;2023-12-07T08:20:08;18.17;;;13.23;;
20078;SDS011;10199;48.850;8.924;2023-12-07T08:22:59;13.77;;;9.60;;
20078;SDS011;10199;48.850;8.924;2023-12-07T08:25:47;8.37;;;7.40;;
20078;SDS011;10199;48.850;8.924;2023-12-07T08:28:35;10.03;;;7.90;;
20078;SDS011;10199;48.850;8.924;2023-12-07T08:31:24;9.93;;;6.70;;
20078;SDS011;10199;48.850;8.924;2023-12-07T08:34:12;9.00;;;7.53;;
20078;SDS011;10199;48.850;8.924;2023-12-07T08:37:00;8.67;;;7.03;;
20078;SDS011;10199;48.850;8.924;2023-12-07T08:39:51;6.97;;;5.90;;
20078;SDS011;10199;48.850;8.924;2023-12-07T08:42:39;8.47;;;6.97;;
20078;SDS011;10199;48.850;8.924;2023-12-07T08:45:27;9.67;;;8.03;;
20078;SDS011;10199;48.850;8.924;2023-12-07T08:48:16;8.83;;;7.93;;
20078;SDS011;10199;48.850;8.924;2023-12-07T08:51:04;6.77;;;6.10;;
20078;SDS011;10199;48.850;8.924;2023-12-07T08:53:52;6.93;;;6.23;;
20078;SDS011;10199;48.850;8.924;2023-12-07T08:56:44;5.83;;;5.23;;
20078;SDS011;10199;48.850;8.924;2023-12-07T08:59:33;5.53;;;5.03;;
20078;SDS011;10199;48.850;8.924;2023-12-07T09:02:21;7.43;;;5.70;;
20078;SDS011;10199;48.850;8.924;2023-12-07T09:05:15;5.67;;;5.00;;
20078;SDS011;10199;48.850;8.924;2023-12-07T09:08:03;5.10;;;4.60;;
20078;SDS011;10199;48.850;8.924;2023-12-07T09:10:51;5.80;;;4.57;;
20078;SDS011;10199;48.850;8.924;2023-12-07T09:13:41;5.07;;;4.63;;
20078;SDS011;10199;48.850;8.924;2023-12-07T09:16:29;6.43;;;5.67;;
20078;SDS011;10199;48.850;8.924;2023-12-07T09:19:18;6.27;;;5.67;;
20078;SDS011;10199;48.850;8.924;2023-12-07T09:22:06;5.93;;;5.00;;
20078;SDS011;10199;48.850;8.924;2023-12-07T09:24:54;6.07;;;5.30;;
20078;SDS011;10199;48.850;8.924;2023-12-07T09:27:43;7.67;;;6.33;;
20078;SDS011;10199;48.850;8.924;2023-12-07T09:30:32;9.30;;;8.30;;
20078;SDS011;10199;48.850;8.924;2023-12-07T09:33:21;7.20;;;6.43;;
20078;SDS011;10199;48.850;8.924;2023-12-07T09:36:09;7.00;;;5.80;;
20078;SDS011;10199;48.850;8.924;2023-12-07T09:38:58;6.67;;;5.10;;
20078;SDS011;10199;48.850;8.924;2023-12-07T09:41:46;6.10;;;4.80;;
20078;SDS011;10199;48.850;8.924;2023-12-07T09:44:34;7.23;;;5.40;;
20078;SDS011;10199;48.850;8.924;2023-12-07T09:47:24;5.63;;;4.70;;
20078;SDS011;10199;48.850;8.924;2023-12-07T09:50:17;5.83;;;4.90;;
20078;SDS011;10199;48.850;8.924;2023-12-07T09:53:08;5.93;;;4.93;;
20078;SDS011;10199;48.850;8.924;2023-12-07T09:55:56;5.17;;;4.23;;
20078;SDS011;10199;48.850;8.924;2023-12-07T09:58:44;5.10;;;4.20;;
20078;SDS011;10199;48.850;8.924;2023-12-07T10:01:32;5.17;;;3.97;;
20078;SDS011;10199;48.850;8.924;2023-12-07T10:04:23;6.73;;;4.10;;
20078;SDS011;10199;48.850;8.924;2023-12-07T10:07:12;6.10;;;4.17;;
20078;SDS011;10199;48.850;8.924;2023-12-07T10:10:01;4.63;;;4.13;;
20078;SDS011;10199;48.850;8.924;2023-12-07T10:12:51;5.03;;;4.53;;
20078;SDS011;10199;48.850;8.924;2023-12-07T10:15:40;6.17;;;5.03;;
20078;SDS011;10199;48.850;8.924;2023-12-07T10:18:28;6.50;;;4.63;;
20078;SDS011;10199;48.850;8.924;2023-12-07T10:21:18;4.53;;;3.60;;
20078;SDS011;10199;48.850;8.924;2023-12-07T10:24:19;6.43;;;4.50;;
20078;SDS011;10199;48.850;8.924;2023-12-07T10:27:09;5.97;;;4.20;;
20078;SDS011;10199;48.850;8.924;2023-12-07T10:29:58;5.23;;;4.70;;
20078;SDS011;10199;48.850;8.924;2023-12-07T10:32:46;5.40;;;4.17;;
20078;SDS011;10199;48.850;8.924;2023-12-07T10:35:37;4.23;;;3.53;;
20078;SDS011;10199;48.850;8.924;2023-12-07T10:38:28;6.47;;;4.20;;
20078;SDS011;10199;48.850;8.924;2023-12-07T10:41:19;5.70;;;4.20;;
20078;SDS011;10199;48.850;8.924;2023-12-07T10:44:09;5.03;;;3.83;;
20078;SDS011;10199;48.850;8.924;2023-12-07T10:47:01;5.63;;;4.60;;
20078;SDS011;10199;48.850;8.924;2023-12-07T10:49:50;6.50;;;4.30;;
20078;SDS011;10199;48.850;8.924;2023-12-07T10:52:44;3.40;;;3.00;;
20078;SDS011;10199;48.850;8.924;2023-12-07T10:55:38;5.63;;;3.83;;
20078;SDS011;10199;48.850;8.924;2023-12-07T10:58:30;4.93;;;4.43;;
20078;SDS011;10199;48.850;8.924;2023-12-07T11:01:23;8.70;;;4.60;;
20078;SDS011;10199;48.850;8.924;2023-12-07T11:04:13;2.87;;;2.60;;
20078;SDS011;10199;48.850;8.924;2023-12-07T11:07:03;5.53;;;4.40;;
20078;SDS011;10199;48.850;8.924;2023-12-07T11:09:58;5.37;;;4.17;;
20078;SDS011;10199;48.850;8.924;2023-12-07T11:12:53;7.53;;;2.67;;
20078;SDS011;10199;48.850;8.924;2023-12-07T11:15:48;5.73;;;4.77;;
20078;SDS011;10199;48.850;8.924;2023-12-07T11:18:36;5.47;;;4.17;;
20078;SDS011;10199;48.850;8.924;2023-12-07T11:21:24;6.20;;;4.67;;
20078;SDS011;10199;48.850;8.924;2023-12-07T11:24:15;6.53;;;4.77;;
20078;SDS011;10199;48.850;8.924;2023-12-07T11:27:04;5.43;;;4.83;;
20078;SDS011;10199;48.850;8.924;2023-12-07T11:29:53;4.53;;;3.97;;
20078;SDS011;10199;48.850;8.924;2023-12-07T11:32:42;8.10;;;4.97;;
20078;SDS011;10199;48.850;8.924;2023-12-07T11:35:32;7.60;;;5.23;;
20078;SDS011;10199;48.850;8.924;2023-12-07T11:38:21;20.40;;;15.40;;
20078;SDS011;10199;48.850;8.924;2023-12-07T11:41:09;10.47;;;9.03;;
20078;SDS011;10199;48.850;8.924;2023-12-07T11:43:58;5.20;;;4.47;;
20078;SDS011;10199;48.850;8.924;2023-12-07T11:46:47;7.37;;;5.47;;
20078;SDS011;10199;48.850;8.924;2023-12-07T11:49:36;7.67;;;4.37;;
20078;SDS011;10199;48.850;8.924;2023-12-07T11:52:24;4.40;;;3.33;;
20078;SDS011;10199;48.850;8.924;2023-12-07T11:55:13;6.00;;;5.37;;
20078;SDS011;10199;48.850;8.924;2023-12-07T11:58:01;7.67;;;6.43;;
20078;SDS011;10199;48.850;8.924;2023-12-07T12:00:50;6.07;;;4.77;;
20078;SDS011;10199;48.850;8.924;2023-12-07T12:03:41;6.80;;;4.80;;
20078;SDS011;10199;48.850;8.924;2023-12-07T12:06:30;4.33;;;3.93;;
20078;SDS011;10199;48.850;8.924;2023-12-07T12:09:18;4.67;;;3.97;;
20078;SDS011;10199;48.850;8.924;2023-12-07T12:12:09;6.23;;;4.30;;
20078;SDS011;10199;48.850;8.924;2023-12-07T12:14:57;3.00;;;1.93;;
20078;SDS011;10199;48.850;8.924;2023-12-07T12:17:45;2.13;;;1.93;;
20078;SDS011;10199;48.850;8.924;2023-12-07T12:20:35;2.27;;;1.20;;
20078;SDS011;10199;48.850;8.924;2023-12-07T12:23:23;2.00;;;1.80;;
20078;SDS011;10199;48.850;8.924;2023-12-07T12:26:11;2.00;;;1.80;;
20078;SDS011;10199;48.850;8.924;2023-12-07T12:29:00;3.63;;;1.43;;
20078;SDS011;10199;48.850;8.924;2023-12-07T12:31:48;1.40;;;1.30;;
20078;SDS011;10199;48.850;8.924;2023-12-07T12:34:36;1.53;;;1.43;;
20078;SDS011;10199;48.850;8.924;2023-12-07T12:37:26;1.43;;;1.20;;
20078;SDS011;10199;48.850;8.924;2023-12-07T12:40:15;1.90;;;1.13;;
20078;SDS011;10199;48.850;8.924;2023-12-07T12:43:05;2.43;;;1.70;;
20078;SDS011;10199;48.850;8.924;2023-12-07T12:45:53;2.43;;;1.20;;
20078;SDS011;10199;48.850;8.924;2023-12-07T12:48:54;1.83;;;1.03;;
20078;SDS011;10199;48.850;8.924;2023-12-07T12:51:44;2.47;;;1.77;;
20078;SDS011;10199;48.850;8.924;2023-12-07T12:54:33;1.87;;;1.47;;
20078;SDS011;10199;48.850;8.924;2023-12-07T12:57:22;1.77;;;0.83;;
20078;SDS011;10199;48.850;8.924;2023-12-07T13:00:12;1.90;;;1.20;;
20078;SDS011;10199;48.850;8.924;2023-12-07T13:03:02;2.03;;;1.30;;
20078;SDS011;10199;48.850;8.924;2023-12-07T13:05:51;2.77;;;1.87;;
20078;SDS011;10199;48.850;8.924;2023-12-07T13:08:40;3.70;;;2.30;;
20078;SDS011;10199;48.850;8.924;2023-12-07T13:11:29;2.00;;;1.80;;
20078;SDS011;10199;48.850;8.924;2023-12-07T13:14:17;2.10;;;1.20;;
20078;SDS011;10199;48.850;8.924;2023-12-07T13:17:06;1.93;;;1.60;;
20078;SDS011;10199;48.850;8.924;2023-12-07T13:19:55;0.97;;;0.90;;
20078;SDS011;10199;48.850;8.924;2023-12-07T13:22:43;2.67;;;1.60;;
20078;SDS011;10199;48.850;8.924;2023-12-07T13:25:31;2.27;;;1.37;;
20078;SDS011;10199;48.850;8.924;2023-12-07T13:28:20;1.00;;;0.90;;
20078;SDS011;10199;48.850;8.924;2023-12-07T13:31:10;2.10;;;1.60;;
20078;SDS011;10199;48.850;8.924;2023-12-07T13:33:58;4.73;;;1.70;;
20078;SDS011;10199;48.850;8.924;2023-12-07T13:36:46;2.00;;;1.33;;
20078;SDS011;10199;48.850;8.924;2023-12-07T13:39:35;1.63;;;0.77;;
20078;SDS011;10199;48.850;8.924;2023-12-07T13:42:23;2.10;;;1.67;;
20078;SDS011;10199;48.850;8.924;2023-12-07T13:45:14;1.60;;;1.37;;
20078;SDS011;10199;48.850;8.924;2023-12-07T13:48:03;3.33;;;2.20;;
20078;SDS011;10199;48.850;8.924;2023-12-07T13:50:51;2.70;;;1.77;;
20078;SDS011;10199;48.850;8.924;2023-12-07T13:53:39;1.97;;;1.57;;
20078;SDS011;10199;48.850;8.924;2023-12-07T13:56:27;2.43;;;2.10;;
20078;SDS011;10199;48.850;8.924;2023-12-07T13:59:15;2.50;;;2.10;;
20078;SDS011;10199;48.850;8.924;2023-12-07T14:02:05;3.40;;;1.30;;
20078;SDS011;10199;48.850;8.924;2023-12-07T14:04:53;2.50;;;1.83;;
20078;SDS011;10199;48.850;8.924;2023-12-07T14:07:41;2.57;;;1.83;;
20078;SDS011;10199;48.850;8.924;2023-12-07T14:10:29;3.40;;;2.30;;
20078;SDS011;10199;48.850;8.924;2023-12-07T14:16:45;4.80;;;3.03;;
20078;SDS011;10199;48.850;8.924;2023-12-07T14:19:37;4.73;;;2.60;;
20078;SDS011;10199;48.850;8.924;2023-12-07T14:22:26;4.33;;;3.00;;
20078;SDS011;10199;48.850;8.924;2023-12-07T14:25:14;4.17;;;3.50;;
20078;SDS011;10199;48.850;8.924;2023-12-07T14:28:04;7.10;;;4.30;;
20078;SDS011;10199;48.850;8.924;2023-12-07T14:30:52;2.50;;;2.13;;
20078;SDS011;10199;48.850;8.924;2023-12-07T14:33:43;3.17;;;2.37;;
20078;SDS011;10199;48.850;8.924;2023-12-07T14:36:33;3.27;;;2.97;;
20078;SDS011;10199;48.850;8.924;2023-12-07T14:39:21;4.90;;;4.10;;
20078;SDS011;10199;48.850;8.924;2023-12-07T14:42:09;6.27;;;5.43;;
20078;SDS011;10199;48.850;8.924;2023-12-07T14:44:57;4.20;;;3.80;;
20078;SDS011;10199;48.850;8.924;2023-12-07T14:47:45;3.17;;;2.87;;
20078;SDS011;10199;48.850;8.924;2023-12-07T14:50:34;4.57;;;2.90;;
20078;SDS011;10199;48.850;8.924;2023-12-07T14:53:23;11.23;;;7.53;;
20078;SDS011;10199;48.850;8.924;2023-12-07T14:56:11;11.60;;;8.27;;
20078;SDS011;10199;48.850;8.924;2023-12-07T14:59:00;5.80;;;4.60;;
20078;SDS011;10199;48.850;8.924;2023-12-07T15:01:48;4.67;;;3.63;;
20078;SDS011;10199;48.850;8.924;2023-12-07T15:04:37;5.43;;;3.67;;
20078;SDS011;10199;48.850;8.924;2023-12-07T15:07:25;4.77;;;3.33;;
20078;SDS011;10199;48.850;8.924;2023-12-07T15:10:16;4.23;;;3.50;;
20078;SDS011;10199;48.850;8.924;2023-12-07T15:13:05;5.33;;;3.80;;
20078;SDS011;10199;48.850;8.924;2023-12-07T15:15:53;4.97;;;3.50;;
20078;SDS011;10199;48.850;8.924;2023-12-07T15:18:41;6.57;;;4.37;;
20078;SDS011;10199;48.850;8.924;2023-12-07T15:21:31;7.40;;;4.97;;
20078;SDS011;10199;48.850;8.924;2023-12-07T15:24:19;7.33;;;4.80;;
20078;SDS011;10199;48.850;8.924;2023-12-07T15:27:13;7.57;;;4.50;;
20078;SDS011;10199;48.850;8.924;2023-12-07T15:30:02;6.23;;;4.07;;
20078;SDS011;10199;48.850;8.924;2023-12-07T15:32:53;3.97;;;3.57;;
20078;SDS011;10199;48.850;8.924;2023-12-07T15:35:41;4.77;;;3.37;;
20078;SDS011;10199;48.850;8.924;2023-12-07T15:38:30;5.20;;;4.20;;
20078;SDS011;10199;48.850;8.924;2023-12-07T15:41:18;7.27;;;4.20;;
20078;SDS011;10199;48.850;8.924;2023-12-07T15:44:07;4.43;;;3.60;;
20078;SDS011;10199;48.850;8.924;2023-12-07T15:46:56;3.80;;;3.40;;
20078;SDS011;10199;48.850;8.924;2023-12-07T15:49:44;4.37;;;3.07;;
20078;SDS011;10199;48.850;8.924;2023-12-07T15:52:33;2.77;;;2.50;;
20078;SDS011;10199;48.850;8.924;2023-12-07T15:55:21;4.63;;;2.70;;
20078;SDS011;10199;48.850;8.924;2023-12-07T15:58:09;3.03;;;2.20;;
20078;SDS011;10199;48.850;8.924;2023-12-07T16:01:02;3.33;;;2.30;;
20078;SDS011;10199;48.850;8.924;2023-12-07T16:03:50;4.17;;;3.37;;
20078;SDS011;10199;48.850;8.924;2023-12-07T16:06:38;4.13;;;2.50;;
20078;SDS011;10199;48.850;8.924;2023-12-07T16:09:26;5.80;;;3.67;;
20078;SDS011;10199;48.850;8.924;2023-12-07T16:12:15;4.77;;;3.80;;
20078;SDS011;10199;48.850;8.924;2023-12-07T16:15:03;7.33;;;2.70;;
20078;SDS011;10199;48.850;8.924;2023-12-07T16:17:54;3.60;;;2.20;;
20078;SDS011;10199;48.850;8.924;2023-12-07T16:20:42;3.13;;;1.70;;
20078;SDS011;10199;48.850;8.924;2023-12-07T16:23:30;2.80;;;2.07;;
20078;SDS011;10199;48.850;8.924;2023-12-07T16:26:18;2.70;;;1.90;;
20078;SDS011;10199;48.850;8.924;2023-12-07T16:29:07;1.97;;;1.63;;
20078;SDS011;10199;48.850;8.924;2023-12-07T16:31:55;2.70;;;2.10;;
20078;SDS011;10199;48.850;8.924;2023-12-07T16:34:44;2.07;;;1.87;;
20078;SDS011;10199;48.850;8.924;2023-12-07T16:37:32;3.20;;;2.13;;
20078;SDS011;10199;48.850;8.924;2023-12-07T16:40:21;2.80;;;1.93;;
20078;SDS011;10199;48.850;8.924;2023-12-07T16:43:09;4.27;;;2.43;;
20078;SDS011;10199;48.850;8.924;2023-12-07T16:45:57;3.97;;;2.87;;
20078;SDS011;10199;48.850;8.924;2023-12-07T16:48:45;4.43;;;3.70;;
20078;SDS011;10199;48.850;8.924;2023-12-07T16:51:34;4.33;;;2.90;;
20078;SDS011;10199;48.850;8.924;2023-12-07T16:54:23;4.37;;;3.93;;
20078;SDS011;10199;48.850;8.924;2023-12-07T16:57:11;2.73;;;2.17;;
20078;SDS011;10199;48.850;8.924;2023-12-07T17:00:00;5.37;;;3.90;;